Time;durP1;ratioP1;P1;durP2;ratioP2;P2;SDS_P1;SDS_P2;PMS_P1;PMS_P2;Temp;Humidity;BMP_temperature;BMP_pressure;BME280_temperature;BME280_humidity;BME280_pressure;Samples;Min_cycle;Max_cycle;Signal;HPM_P1;HPM_P2
2020/12/23 00:01:48;;;;;;;2.38;1.23;;;13.20;99.90;;;;;;5033534;28;20034;-60
2020/12/23 00:04:14;;;;;;;3.13;1.23;;;13.20;99.90;;;;;;5033363;28;20467;-59
2020/12/23 00:06:39;;;;;;;4.70;1.88;;;13.20;99.90;;;;;;5033554;28;20163;-59
2020/12/23 00:09:05;;;;;;;2.28;1.58;;;13.10;99.90;;;;;;5045279;28;20490;-59
2020/12/23 00:11:32;;;;;;;1.52;1.42;;;13.10;99.90;;;;;;5053566;28;20036;-59
2020/12/23 00:13:58;;;;;;;1.65;1.23;;;13.20;99.90;;;;;;5035080;28;20032;-59
2020/12/23 00:16:23;;;;;;;1.52;1.30;;;13.20;99.90;;;;;;5035602;28;20120;-64
2020/12/23 00:18:49;;;;;;;1.30;0.90;;;13.20;99.90;;;;;;5052793;28;20033;-58
2020/12/23 00:21:15;;;;;;;1.88;0.80;;;13.20;99.90;;;;;;5053587;28;20021;-59
2020/12/23 00:23:41;;;;;;;1.23;1.00;;;13.20;99.90;;;;;;5053605;28;20397;-60
2020/12/23 00:26:13;;;;;;;1.20;0.95;;;13.20;99.90;;;;;;5052968;28;20087;-61
2020/12/23 00:28:40;;;;;;;1.95;1.05;;;13.20;99.90;;;;;;5052529;28;20367;-60
2020/12/23 00:31:06;;;;;;;3.83;1.10;;;13.10;99.90;;;;;;5035125;28;20033;-60
2020/12/23 00:33:32;;;;;;;1.85;0.90;;;13.20;99.90;;;;;;5053520;28;20029;-62
2020/12/23 00:35:57;;;;;;;1.65;1.10;;;13.20;99.90;;;;;;5052924;28;20025;-58
2020/12/23 00:38:23;;;;;;;0.77;0.65;;;13.30;99.90;;;;;;5035003;28;20056;-58
2020/12/23 00:40:49;;;;;;;1.38;1.23;;;13.30;99.90;;;;;;5052386;28;20413;-58
2020/12/23 00:43:14;;;;;;;1.08;0.85;;;13.30;99.90;;;;;;5035144;28;20033;-59
2020/12/23 00:45:40;;;;;;;1.23;0.82;;;13.30;99.90;;;;;;5052507;28;20044;-59
2020/12/23 00:48:05;;;;;;;1.85;0.90;;;13.30;99.90;;;;;;5051821;28;20033;-59
2020/12/23 00:50:31;;;;;;;0.68;0.68;;;13.30;99.90;;;;;;5035560;28;20033;-63
2020/12/23 00:52:57;;;;;;;2.55;0.77;;;13.30;99.90;;;;;;5052698;28;20446;-58
2020/12/23 00:55:23;;;;;;;1.13;0.82;;;13.30;99.90;;;;;;5052808;28;20025;-59
2020/12/23 00:57:48;;;;;;;0.60;0.57;;;13.30;99.90;;;;;;5052529;28;20067;-59
2020/12/23 01:00:14;;;;;;;1.95;0.93;;;13.30;99.90;;;;;;5052862;28;20467;-59
2020/12/23 01:02:39;;;;;;;1.88;1.48;;;13.30;99.90;;;;;;5052461;28;20108;-59
2020/12/23 01:05:05;;;;;;;3.10;1.10;;;13.30;99.90;;;;;;5052034;28;20467;-58
2020/12/23 01:07:31;;;;;;;1.55;0.75;;;13.20;99.90;;;;;;5052477;28;20032;-59
2020/12/23 01:09:56;;;;;;;0.88;0.80;;;13.30;99.90;;;;;;5051950;28;20057;-59
2020/12/23 01:12:22;;;;;;;2.60;0.40;;;13.30;99.90;;;;;;5052444;28;20364;-65
2020/12/23 01:14:48;;;;;;;0.93;0.20;;;13.30;99.90;;;;;;5034019;28;20035;-69
2020/12/23 01:17:14;;;;;;;0.68;0.40;;;13.30;99.90;;;;;;5035093;28;20040;-65
2020/12/23 01:19:41;;;;;;;0.80;0.38;;;13.30;99.90;;;;;;5034448;28;20032;-60
2020/12/23 01:22:06;;;;;;;0.63;0.22;;;13.30;99.90;;;;;;5033827;28;20056;-63
2020/12/23 01:24:32;;;;;;;3.00;0.30;;;13.30;99.90;;;;;;5034272;28;20068;-59
2020/12/23 01:26:58;;;;;;;0.93;0.25;;;13.30;99.90;;;;;;5034018;28;20029;-60
2020/12/23 01:29:23;;;;;;;0.47;0.20;;;13.30;99.90;;;;;;5052011;28;20025;-59
2020/12/23 01:31:49;;;;;;;0.50;0.17;;;13.30;99.90;;;;;;5052281;28;20033;-63
2020/12/23 01:34:14;;;;;;;0.85;0.20;;;13.30;99.90;;;;;;5051980;28;20029;-59
2020/12/23 01:36:40;;;;;;;0.90;0.10;;;13.30;99.90;;;;;;5051931;28;20497;-59
2020/12/23 01:39:06;;;;;;;0.60;0.20;;;13.30;99.90;;;;;;5051892;28;20025;-59
2020/12/23 01:41:31;;;;;;;1.85;0.10;;;13.30;99.90;;;;;;5055739;28;20029;-59
2020/12/23 01:43:58;;;;;;;0.30;0.20;;;13.30;99.90;;;;;;5037546;28;20069;-59
2020/12/23 01:46:32;;;;;;;1.17;0.10;;;13.30;99.90;;;;;;5037840;28;20106;-59
2020/12/23 01:49:07;;;;;;;0.40;0.20;;;13.30;99.90;;;;;;5037631;28;20036;-59
2020/12/23 01:51:34;;;;;;;0.63;0.22;;;13.30;99.90;;;;;;5038184;28;20025;-59
2020/12/23 01:54:00;;;;;;;0.95;0.30;;;13.30;99.90;;;;;;5037633;28;20111;-61
2020/12/23 01:56:26;;;;;;;0.30;0.20;;;13.30;99.90;;;;;;5055613;28;20120;-59
2020/12/23 01:58:51;;;;;;;0.30;0.17;;;13.30;99.90;;;;;;5055322;28;20458;-58
2020/12/23 02:01:20;;;;;;;0.40;0.30;;;13.30;99.90;;;;;;5037816;28;20474;-59
2020/12/23 02:03:47;;;;;;;0.73;0.30;;;13.30;99.90;;;;;;5055570;28;20033;-59
2020/12/23 02:06:13;;;;;;;1.15;0.28;;;13.30;99.90;;;;;;5055083;28;20033;-59
2020/12/23 02:08:40;;;;;;;0.90;0.50;;;13.30;99.90;;;;;;5055279;28;20052;-59
2020/12/23 02:11:08;;;;;;;1.20;0.40;;;13.30;99.90;;;;;;5054693;28;20113;-59
2020/12/23 02:13:39;;;;;;;1.67;0.50;;;13.20;99.90;;;;;;5055513;28;20086;-59
2020/12/23 02:16:05;;;;;;;0.70;0.50;;;13.20;99.90;;;;;;5037530;28;20063;-59
2020/12/23 02:18:32;;;;;;;3.78;0.50;;;13.10;99.90;;;;;;5037898;28;20061;-61
2020/12/23 02:20:57;;;;;;;2.25;0.70;;;13.20;99.90;;;;;;5055050;28;20029;-66
2020/12/23 02:23:23;;;;;;;1.00;0.60;;;13.20;99.90;;;;;;5055666;28;20100;-60
2020/12/23 02:25:49;;;;;;;1.75;0.98;;;13.20;99.90;;;;;;5055287;28;20036;-64
2020/12/23 02:28:15;;;;;;;1.17;0.80;;;13.20;99.90;;;;;;5037012;28;20032;-61
2020/12/23 02:30:41;;;;;;;2.85;0.95;;;13.20;99.90;;;;;;5037432;28;20037;-59
2020/12/23 02:33:06;;;;;;;1.25;1.10;;;13.20;99.90;;;;;;5054461;28;20482;-63
2020/12/23 02:35:32;;;;;;;4.53;0.77;;;13.10;99.90;;;;;;5055272;28;20036;-60
2020/12/23 02:37:57;;;;;;;0.90;0.68;;;13.20;99.90;;;;;;5054856;28;20104;-58
2020/12/23 02:40:23;;;;;;;0.80;0.60;;;13.10;99.90;;;;;;5054934;28;20374;-62
2020/12/23 02:42:49;;;;;;;2.58;0.80;;;13.20;99.90;;;;;;5054701;28;20021;-59
2020/12/23 02:45:15;;;;;;;1.17;0.65;;;13.20;99.90;;;;;;5054358;28;20040;-59
2020/12/23 02:47:40;;;;;;;1.30;1.02;;;13.20;99.90;;;;;;5054578;28;20033;-59
2020/12/23 02:50:06;;;;;;;1.67;0.73;;;13.20;99.90;;;;;;5036348;28;20032;-59
2020/12/23 02:52:32;;;;;;;2.60;0.82;;;13.10;99.90;;;;;;5054116;28;20025;-59
2020/12/23 02:54:57;;;;;;;1.27;0.30;;;13.10;99.90;;;;;;5054581;28;20485;-59
2020/12/23 02:57:24;;;;;;;1.27;0.40;;;13.10;99.90;;;;;;5054520;28;20060;-59
2020/12/23 02:59:49;;;;;;;3.33;0.40;;;13.20;99.90;;;;;;5036880;28;20467;-59
2020/12/23 03:02:15;;;;;;;0.50;0.40;;;13.20;99.90;;;;;;5054273;28;20032;-59
2020/12/23 03:04:40;;;;;;;1.15;0.50;;;13.10;99.90;;;;;;5054181;28;20048;-60
2020/12/23 03:07:06;;;;;;;1.00;0.80;;;13.10;99.90;;;;;;5053743;28;20482;-59
2020/12/23 03:09:32;;;;;;;2.22;0.40;;;13.20;99.90;;;;;;5052440;28;20128;-58
2020/12/23 03:11:57;;;;;;;0.65;0.40;;;13.10;99.90;;;;;;5053494;28;20047;-59
2020/12/23 03:14:23;;;;;;;0.90;0.45;;;13.10;99.90;;;;;;5054545;28;20032;-59
2020/12/23 03:16:48;;;;;;;1.60;0.65;;;13.10;99.90;;;;;;5054198;28;20036;-59
2020/12/23 03:19:14;;;;;;;1.08;0.90;;;13.10;99.90;;;;;;5053529;28;20285;-59
2020/12/23 03:21:40;;;;;;;1.90;0.85;;;13.00;99.90;;;;;;5036476;28;20222;-59
2020/12/23 03:24:06;;;;;;;2.70;0.90;;;12.90;99.90;;;;;;5035648;28;20039;-61
2020/12/23 03:26:31;;;;;;;0.93;0.60;;;13.00;99.90;;;;;;5036280;28;20024;-62
2020/12/23 03:28:57;;;;;;;1.27;0.50;;;12.90;99.90;;;;;;5035667;28;20459;-59
2020/12/23 03:31:22;;;;;;;2.38;0.57;;;12.90;99.90;;;;;;5036370;28;20028;-60
2020/12/23 03:33:48;;;;;;;0.88;0.40;;;12.90;99.90;;;;;;5054259;28;20366;-59
2020/12/23 03:36:14;;;;;;;1.50;0.50;;;12.90;99.90;;;;;;5011510;28;20060;-59
2020/12/23 03:38:40;;;;;;;2.25;0.90;;;12.90;99.90;;;;;;5012204;28;20033;-60
2020/12/23 03:41:05;;;;;;;0.52;0.32;;;12.90;99.90;;;;;;4995110;28;20519;-59
2020/12/23 03:43:32;;;;;;;1.27;0.30;;;12.90;99.90;;;;;;5011860;28;20041;-59
2020/12/23 03:45:58;;;;;;;0.40;0.30;;;12.90;99.90;;;;;;5011151;28;20081;-61
2020/12/23 03:48:24;;;;;;;2.03;0.68;;;12.90;99.90;;;;;;4995616;28;20025;-59
2020/12/23 03:50:49;;;;;;;3.25;0.70;;;12.90;99.90;;;;;;5012566;28;20093;-59
2020/12/23 03:53:15;;;;;;;2.90;0.73;;;12.90;99.90;;;;;;5012855;28;20033;-58
2020/12/23 03:55:41;;;;;;;1.00;0.50;;;13.00;99.90;;;;;;4996936;28;20474;-63
2020/12/23 03:58:06;;;;;;;2.88;0.63;;;13.00;99.90;;;;;;5012965;28;20121;-62
2020/12/23 04:00:32;;;;;;;1.02;0.68;;;13.00;99.90;;;;;;5014476;28;20511;-67
2020/12/23 04:02:58;;;;;;;0.68;0.50;;;12.90;99.90;;;;;;4997147;28;20041;-66
2020/12/23 04:05:24;;;;;;;0.90;0.73;;;13.00;99.90;;;;;;5014516;28;20034;-59
2020/12/23 04:07:50;;;;;;;1.13;1.00;;;13.00;99.90;;;;;;5027960;28;20120;-60
2020/12/23 04:10:15;;;;;;;4.57;0.88;;;12.90;99.90;;;;;;5053922;28;20032;-66
2020/12/23 04:12:41;;;;;;;2.78;1.40;;;12.90;99.90;;;;;;5054286;28;20031;-61
2020/12/23 04:15:09;;;;;;;1.30;0.60;;;12.90;99.90;;;;;;5055376;28;20028;-60
2020/12/23 04:17:35;;;;;;;1.33;0.70;;;12.90;99.90;;;;;;5055985;28;20025;-61
2020/12/23 04:20:02;;;;;;;1.70;0.70;;;12.90;99.90;;;;;;5055680;28;20025;-62
2020/12/23 04:22:28;;;;;;;0.90;0.50;;;12.80;99.90;;;;;;5037759;28;20028;-59
2020/12/23 04:25:05;;;;;;;2.10;0.77;;;12.90;99.90;;;;;;5056121;28;20392;-67
2020/12/23 04:27:32;;;;;;;3.15;0.68;;;12.90;99.90;;;;;;5055505;28;20064;-59
2020/12/23 04:29:58;;;;;;;1.77;0.52;;;12.80;99.90;;;;;;5055410;28;20060;-66
2020/12/23 04:32:23;;;;;;;1.15;0.63;;;12.80;99.90;;;;;;5055072;28;20375;-59
2020/12/23 04:34:49;;;;;;;4.32;0.82;;;12.80;99.90;;;;;;5055116;28;20474;-61
2020/12/23 04:37:15;;;;;;;0.30;0.30;;;12.70;99.90;;;;;;5053192;28;20032;-62
2020/12/23 04:39:40;;;;;;;2.20;1.25;;;12.70;99.90;;;;;;5055392;28;20039;-63
2020/12/23 04:42:06;;;;;;;0.85;0.20;;;12.80;99.90;;;;;;5054694;28;20374;-59
2020/12/23 04:44:32;;;;;;;0.60;0.40;;;12.70;99.90;;;;;;5054267;28;20033;-60
2020/12/23 04:46:58;;;;;;;0.82;0.40;;;12.70;99.90;;;;;;5054457;28;20335;-59
2020/12/23 04:49:24;;;;;;;0.60;0.30;;;12.60;99.90;;;;;;5036127;28;20053;-59
2020/12/23 04:51:55;;;;;;;1.35;0.40;;;12.60;99.90;;;;;;5036989;28;20116;-60
2020/12/23 04:54:22;;;;;;;3.30;0.50;;;12.60;99.90;;;;;;5054636;28;20079;-62
2020/12/23 04:56:49;;;;;;;0.85;0.30;;;12.60;99.90;;;;;;5055264;28;20466;-62
2020/12/23 04:59:15;;;;;;;1.67;0.30;;;12.60;99.90;;;;;;5055169;28;20056;-61
2020/12/23 05:01:41;;;;;;;1.40;0.55;;;12.60;99.90;;;;;;5055432;28;20482;-61
2020/12/23 05:04:07;;;;;;;2.15;0.55;;;12.50;99.90;;;;;;5054699;28;20401;-61
2020/12/23 05:06:36;;;;;;;2.90;0.40;;;12.50;99.90;;;;;;5055410;28;20453;-59
2020/12/23 05:09:05;;;;;;;0.52;0.28;;;12.50;99.90;;;;;;5036626;28;20051;-74
2020/12/23 05:11:34;;;;;;;0.65;0.30;;;12.50;99.90;;;;;;5054324;28;20029;-59
2020/12/23 05:14:07;;;;;;;0.35;0.10;;;12.50;99.90;;;;;;5035689;28;20025;-64
2020/12/23 05:16:33;;;;;;;4.22;0.52;;;12.50;99.90;;;;;;5059032;28;20079;-61
2020/12/23 05:19:00;;;;;;;2.40;0.30;;;12.50;99.90;;;;;;5058747;28;20061;-59
2020/12/23 05:21:27;;;;;;;0.63;0.55;;;12.40;99.90;;;;;;5056991;28;20098;-59
2020/12/23 05:23:53;;;;;;;0.50;0.28;;;12.50;99.90;;;;;;5040697;28;20025;-60
2020/12/23 05:26:20;;;;;;;2.17;0.20;;;12.50;99.90;;;;;;5058830;28;20029;-63
2020/12/23 05:28:46;;;;;;;0.73;0.35;;;12.50;99.90;;;;;;5041853;28;20088;-60
2020/12/23 05:31:14;;;;;;;1.48;0.10;;;12.50;99.90;;;;;;5058715;28;20053;-60
2020/12/23 05:33:44;;;;;;;2.22;0.30;;;12.50;99.90;;;;;;5058705;28;20070;-63
2020/12/23 05:36:15;;;;;;;0.60;0.40;;;12.50;99.90;;;;;;5057156;28;20032;-61
2020/12/23 05:38:41;;;;;;;0.95;0.28;;;12.40;99.90;;;;;;5040010;28;20154;-59
2020/12/23 05:41:10;;;;;;;1.65;0.20;;;12.50;99.90;;;;;;5039721;28;20040;-60
2020/12/23 05:43:35;;;;;;;1.23;0.20;;;12.50;99.90;;;;;;5040558;28;20025;-67
2020/12/23 05:46:03;;;;;;;1.88;0.30;;;12.50;99.90;;;;;;5040159;28;20043;-59
2020/12/23 05:48:31;;;;;;;3.10;0.45;;;12.40;99.90;;;;;;5058550;28;20049;-64
2020/12/23 05:50:56;;;;;;;0.32;0.20;;;12.50;99.90;;;;;;5058267;28;20027;-59
2020/12/23 05:53:26;;;;;;;0.55;0.30;;;12.40;99.90;;;;;;5057761;28;20105;-61
2020/12/23 05:55:51;;;;;;;1.55;0.40;;;12.30;99.90;;;;;;5057876;28;20032;-59
2020/12/23 05:58:30;;;;;;;0.88;0.30;;;12.30;99.90;;;;;;5039972;28;20075;-62
2020/12/23 06:00:58;;;;;;;2.13;0.40;;;12.40;99.90;;;;;;5040164;28;20025;-59
2020/12/23 06:03:38;;;;;;;1.20;0.20;;;12.30;99.90;;;;;;5057496;28;20466;-68
2020/12/23 06:06:04;;;;;;;1.25;0.38;;;12.40;99.90;;;;;;5058274;28;20041;-60
2020/12/23 06:08:35;;;;;;;2.50;0.60;;;12.30;99.90;;;;;;5035401;28;20041;-61
2020/12/23 06:11:25;;;;;;;3.30;0.50;;;12.40;99.90;;;;;;5036597;28;20064;-62
2020/12/23 06:14:02;;;;;;;0.98;0.30;;;12.40;99.90;;;;;;5036198;28;20478;-60
2020/12/23 06:16:45;;;;;;;1.27;0.40;;;12.40;99.90;;;;;;5035709;28;20421;-67
2020/12/23 06:19:50;;;;;;;2.83;0.90;;;12.40;99.90;;;;;;5036063;28;20541;-63
2020/12/23 06:22:15;;;;;;;2.35;0.50;;;12.40;99.90;;;;;;5014433;28;20021;-59
2020/12/23 06:24:41;;;;;;;1.45;0.40;;;12.40;99.90;;;;;;5032110;28;20046;-59
2020/12/23 06:27:09;;;;;;;2.70;0.50;;;12.30;99.90;;;;;;5034801;28;20034;-61
2020/12/23 06:29:40;;;;;;;4.63;0.43;;;12.40;99.90;;;;;;5035509;28;20116;-65
2020/12/23 06:32:20;;;;;;;0.73;0.47;;;12.30;99.90;;;;;;5034805;28;20057;-64
2020/12/23 06:35:00;;;;;;;1.20;0.40;;;12.20;99.90;;;;;;5034893;28;20034;-61
2020/12/23 06:37:32;;;;;;;0.75;0.40;;;12.30;99.90;;;;;;5033905;28;20572;-59
2020/12/23 06:39:58;;;;;;;;;;;12.30;99.90;;;;;;5035262;28;20021;-64
2020/12/23 06:42:26;;;;;;;1.15;0.43;;;12.30;99.90;;;;;;5035221;28;20400;-65
2020/12/23 06:45:00;;;;;;;2.88;0.50;;;12.30;99.90;;;;;;5035510;28;20041;-60
2020/12/23 06:47:32;;;;;;;4.32;1.17;;;12.30;99.90;;;;;;5033896;28;20025;-63
2020/12/23 06:50:05;;;;;;;2.63;0.73;;;12.40;99.90;;;;;;5035499;28;20029;-60
2020/12/23 06:52:33;;;;;;;3.00;0.50;;;12.30;99.90;;;;;;5034659;28;20061;-62
2020/12/23 06:55:17;;;;;;;1.33;0.73;;;12.40;99.90;;;;;;5035295;28;20036;-59
2020/12/23 06:57:46;;;;;;;2.08;0.35;;;12.40;99.90;;;;;;5034189;28;20037;-66
2020/12/23 07:00:13;;;;;;;1.45;0.40;;;12.40;99.90;;;;;;5035419;28;20029;-60
2020/12/23 07:02:43;;;;;;;1.45;0.20;;;12.40;99.90;;;;;;5035503;28;20036;-61
2020/12/23 07:05:10;;;;;;;1.38;0.30;;;12.40;99.90;;;;;;5034591;28;20114;-69
2020/12/23 07:07:41;;;;;;;1.58;0.70;;;12.40;99.90;;;;;;5035065;28;20025;-59
2020/12/23 07:10:22;;;;;;;1.90;0.30;;;12.40;99.90;;;;;;5054220;28;20132;-61
2020/12/23 07:12:53;;;;;;;3.95;0.80;;;12.30;99.90;;;;;;5054981;28;20025;-64
2020/12/23 07:15:20;;;;;;;;;;;12.40;99.90;;;;;;5054275;28;20029;-63
2020/12/23 07:17:46;;;;;;;3.03;0.40;;;12.30;99.90;;;;;;5054967;28;19996;-59
2020/12/23 07:20:15;;;;;;;2.03;1.02;;;12.30;99.90;;;;;;5054103;28;20462;-63
2020/12/23 07:22:47;;;;;;;1.25;0.68;;;12.30;99.90;;;;;;5054388;28;20391;-64
2020/12/23 07:25:24;;;;;;;2.50;0.95;;;12.30;99.90;;;;;;5036304;28;20036;-65
2020/12/23 07:27:58;;;;;;;3.03;1.02;;;12.30;99.90;;;;;;5054780;28;20226;-60
2020/12/23 07:30:26;;;;;;;2.22;1.25;;;12.30;99.90;;;;;;5053447;28;20057;-59
2020/12/23 07:33:28;;;;;;;2.65;1.58;;;12.20;99.90;;;;;;5036755;28;20039;-58
2020/12/23 07:35:56;;;;;;;4.30;1.52;;;12.30;99.90;;;;;;4973425;28;20035;-59
2020/12/23 07:38:24;;;;;;;4.07;1.50;;;12.30;99.90;;;;;;5020622;28;20033;-60
2020/12/23 07:40:53;;;;;;;3.40;1.70;;;12.40;99.90;;;;;;5045650;28;20154;-59
2020/12/23 07:43:21;;;;;;;3.67;1.88;;;12.40;99.90;;;;;;5047995;28;20065;-65
2020/12/23 07:45:48;;;;;;;5.50;2.50;;;12.40;99.90;;;;;;5038262;28;20034;-60
2020/12/23 07:48:16;;;;;;;4.63;2.25;;;12.40;99.90;;;;;;5031410;28;20025;-59
2020/12/23 07:50:45;;;;;;;2.35;2.15;;;12.40;99.90;;;;;;5041609;28;20048;-60
2020/12/23 07:53:18;;;;;;;2.60;2.33;;;12.40;99.90;;;;;;5020700;28;20026;-65
2020/12/23 07:56:07;;;;;;;2.80;2.45;;;12.40;99.90;;;;;;5042519;28;20037;-59
2020/12/23 07:58:33;;;;;;;3.38;2.55;;;12.30;99.90;;;;;;5042754;28;20429;-62
2020/12/23 08:00:59;;;;;;;4.68;2.72;;;12.70;99.90;;;;;;5040529;28;20043;-61
2020/12/23 08:03:30;;;;;;;3.00;2.33;;;13.10;99.90;;;;;;5024239;28;20040;-60
2020/12/23 08:06:10;;;;;;;6.15;3.28;;;12.70;99.90;;;;;;5027545;28;20032;-64
2020/12/23 08:08:37;;;;;;;4.13;3.20;;;12.70;99.90;;;;;;5043850;28;20041;-60
2020/12/23 08:11:08;;;;;;;4.57;3.30;;;12.50;99.90;;;;;;5045637;28;20029;-62
2020/12/23 08:13:34;;;;;;;5.03;3.58;;;12.50;99.90;;;;;;5033847;28;20087;-65
2020/12/23 08:16:13;;;;;;;7.97;3.83;;;12.50;99.90;;;;;;5015121;28;20430;-59
2020/12/23 08:18:40;;;;;;;4.57;3.60;;;12.50;99.90;;;;;;5029759;28;20029;-63
2020/12/23 08:21:11;;;;;;;4.30;3.78;;;12.40;99.90;;;;;;5034841;28;20057;-59
2020/12/23 08:23:38;;;;;;;4.82;4.00;;;12.50;99.90;;;;;;5052340;28;20021;-59
2020/12/23 08:26:04;;;;;;;5.72;4.25;;;12.40;99.90;;;;;;5035272;28;20045;-60
2020/12/23 08:28:34;;;;;;;5.78;4.10;;;12.50;99.90;;;;;;5034880;28;20039;-60
2020/12/23 08:31:01;;;;;;;4.68;4.07;;;12.60;99.90;;;;;;5053041;28;20028;-60
2020/12/23 08:33:28;;;;;;;6.25;3.97;;;12.60;99.90;;;;;;5034600;28;20124;-64
2020/12/23 08:36:02;;;;;;;6.47;4.13;;;12.70;99.90;;;;;;5053392;28;20101;-60
2020/12/23 08:38:27;;;;;;;6.35;4.07;;;12.70;99.90;;;;;;5053007;28;20017;-59
2020/12/23 08:40:58;;;;;;;4.05;3.65;;;12.80;99.90;;;;;;5053191;28;20485;-60
2020/12/23 08:43:28;;;;;;;3.80;3.20;;;12.80;99.90;;;;;;5034573;28;20029;-60
2020/12/23 08:45:56;;;;;;;3.90;3.45;;;12.80;99.90;;;;;;5035763;28;20036;-63
2020/12/23 08:48:23;;;;;;;4.00;3.35;;;12.90;99.90;;;;;;5052685;28;20029;-60
2020/12/23 08:51:00;;;;;;;6.50;2.55;;;12.90;99.90;;;;;;5035354;28;20537;-62
2020/12/23 08:53:34;;;;;;;7.03;3.83;;;12.90;99.90;;;;;;5053447;28;20021;-64
2020/12/23 08:56:33;;;;;;;3.22;2.33;;;12.80;99.90;;;;;;5035629;28;20029;-63
2020/12/23 08:59:04;;;;;;;3.25;2.80;;;12.80;99.90;;;;;;5034269;28;20029;-60
2020/12/23 09:01:31;;;;;;;3.00;2.70;;;12.80;99.90;;;;;;5051747;28;20047;-60
2020/12/23 09:04:07;;;;;;;3.78;2.78;;;12.80;99.90;;;;;;5034771;28;20037;-60
2020/12/23 09:06:41;;;;;;;2.83;2.60;;;12.90;99.90;;;;;;5051978;28;20217;-61
2020/12/23 09:09:36;;;;;;;2.72;2.08;;;12.80;99.90;;;;;;5034596;28;20406;-61
2020/12/23 09:12:04;;;;;;;2.25;2.05;;;12.90;99.90;;;;;;5014730;28;20099;-60
2020/12/23 09:14:34;;;;;;;2.20;1.90;;;12.80;99.90;;;;;;5033820;28;20035;-60
2020/12/23 09:17:03;;;;;;;4.03;1.88;;;12.80;99.90;;;;;;5052641;28;20027;-61
2020/12/23 09:20:01;;;;;;;2.00;1.73;;;12.90;99.90;;;;;;5052029;28;20028;-60
2020/12/23 09:22:29;;;;;;;3.20;2.35;;;12.80;99.90;;;;;;5034190;28;20025;-60
2020/12/23 09:25:14;;;;;;;2.50;1.90;;;12.90;99.90;;;;;;5052181;28;20458;-63
2020/12/23 09:27:41;;;;;;;1.52;1.42;;;12.90;99.90;;;;;;5052075;28;20029;-59
2020/12/23 09:30:07;;;;;;;5.47;1.88;;;12.90;99.90;;;;;;5051929;28;20039;-59
2020/12/23 09:32:33;;;;;;;1.85;1.70;;;12.90;99.90;;;;;;5051461;28;20037;-59
2020/12/23 09:35:16;;;;;;;2.42;1.88;;;12.90;99.90;;;;;;5052282;28;20079;-60
2020/12/23 09:37:43;;;;;;;1.40;1.30;;;12.90;99.90;;;;;;5052251;28;20035;-59
2020/12/23 09:40:11;;;;;;;1.60;1.30;;;12.90;99.90;;;;;;5034261;28;20025;-64
2020/12/23 09:42:36;;;;;;;1.75;1.50;;;13.00;99.90;;;;;;5051916;28;20112;-59
2020/12/23 09:45:03;;;;;;;1.25;1.15;;;13.00;99.90;;;;;;5052135;28;20467;-61
2020/12/23 09:47:28;;;;;;;2.60;1.88;;;12.90;99.90;;;;;;5051440;28;20036;-60
2020/12/23 09:49:54;;;;;;;3.05;1.02;;;12.90;99.90;;;;;;5052598;28;20025;-59
2020/12/23 09:52:20;;;;;;;1.58;1.35;;;12.90;99.90;;;;;;5051383;28;20033;-60
2020/12/23 09:54:45;;;;;;;2.40;1.98;;;12.90;99.90;;;;;;5051936;28;20431;-60
2020/12/23 09:57:11;;;;;;;1.52;1.40;;;12.80;99.90;;;;;;5052196;28;20039;-63
2020/12/23 09:59:36;;;;;;;3.60;1.40;;;12.90;99.90;;;;;;5051239;28;20466;-61
2020/12/23 10:02:02;;;;;;;2.33;1.73;;;12.90;99.90;;;;;;5054817;28;20101;-59
2020/12/23 10:04:28;;;;;;;4.10;1.45;;;12.80;99.90;;;;;;5055257;28;20544;-59
2020/12/23 10:06:54;;;;;;;2.67;1.42;;;12.80;99.90;;;;;;5056209;28;20124;-65
2020/12/23 10:09:19;;;;;;;2.40;1.20;;;12.90;99.90;;;;;;5056186;28;20049;-60
2020/12/23 10:11:45;;;;;;;1.27;0.95;;;12.90;99.90;;;;;;5055290;28;20033;-60
2020/12/23 10:14:10;;;;;;;1.58;1.10;;;12.90;99.90;;;;;;5055596;28;20029;-64
2020/12/23 10:16:36;;;;;;;2.47;1.50;;;13.00;99.90;;;;;;5054998;28;20114;-60
2020/12/23 10:19:02;;;;;;;1.25;0.90;;;12.90;99.90;;;;;;5037461;28;20025;-58
2020/12/23 10:21:28;;;;;;;3.13;1.38;;;13.00;99.90;;;;;;5054408;28;20040;-60
2020/12/23 10:23:54;;;;;;;2.75;1.25;;;13.00;99.90;;;;;;5055092;28;20021;-60
2020/12/23 10:26:20;;;;;;;4.18;1.02;;;13.00;99.90;;;;;;5036769;28;20371;-61
2020/12/23 10:28:46;;;;;;;1.77;1.20;;;13.00;99.90;;;;;;5037346;28;20415;-61
2020/12/23 10:31:12;;;;;;;1.08;0.77;;;13.10;99.90;;;;;;5036976;28;20067;-60
2020/12/23 10:33:37;;;;;;;1.45;1.00;;;13.10;99.90;;;;;;5054479;28;20029;-59
2020/12/23 10:36:08;;;;;;;1.73;1.20;;;13.00;99.90;;;;;;5055046;28;20089;-60
2020/12/23 10:38:33;;;;;;;1.10;1.00;;;13.00;99.90;;;;;;5054568;28;20025;-59
2020/12/23 10:40:59;;;;;;;1.25;0.80;;;13.00;99.90;;;;;;5054943;28;20025;-59
2020/12/23 10:43:25;;;;;;;1.52;1.13;;;13.10;99.90;;;;;;5036437;28;20367;-60
2020/12/23 10:45:50;;;;;;;2.28;1.80;;;13.20;99.90;;;;;;5054639;28;20055;-64
2020/12/23 10:48:17;;;;;;;3.03;1.65;;;13.20;99.90;;;;;;5036973;28;20025;-60
2020/12/23 10:50:43;;;;;;;1.98;1.77;;;13.20;99.90;;;;;;5036639;28;20035;-63
2020/12/23 10:53:09;;;;;;;2.47;1.52;;;13.20;99.90;;;;;;5037161;28;20025;-60
2020/12/23 10:55:35;;;;;;;6.00;2.42;;;13.20;99.90;;;;;;5036782;28;20116;-61
2020/12/23 10:58:01;;;;;;;2.33;2.13;;;13.10;99.90;;;;;;5036939;28;20025;-64
2020/12/23 11:00:26;;;;;;;3.78;2.70;;;13.10;99.90;;;;;;5053975;28;20040;-62
2020/12/23 11:02:52;;;;;;;2.72;2.47;;;13.10;99.90;;;;;;5036755;28;20040;-64
2020/12/23 11:05:18;;;;;;;3.95;3.30;;;13.10;99.90;;;;;;5055125;28;20083;-60
2020/12/23 11:07:45;;;;;;;2.92;2.60;;;13.10;99.90;;;;;;5036873;28;20029;-61
2020/12/23 11:10:11;;;;;;;4.38;2.85;;;13.20;99.90;;;;;;5037211;28;20148;-59
2020/12/23 11:12:37;;;;;;;2.92;2.30;;;13.10;99.90;;;;;;5035440;28;20075;-60
2020/12/23 11:15:03;;;;;;;4.68;2.65;;;13.00;99.90;;;;;;5054534;28;20522;-59
2020/12/23 11:17:28;;;;;;;2.95;2.28;;;13.10;99.90;;;;;;5035518;28;20057;-60
2020/12/23 11:19:54;;;;;;;5.63;3.90;;;13.20;99.90;;;;;;5036326;28;20025;-62
2020/12/23 11:22:20;;;;;;;4.57;3.47;;;13.20;99.90;;;;;;5036465;28;20058;-61
2020/12/23 11:24:47;;;;;;;4.22;3.30;;;13.30;99.90;;;;;;5035723;28;20087;-62
2020/12/23 11:27:15;;;;;;;4.72;2.65;;;13.20;99.90;;;;;;5035988;28;20033;-66
2020/12/23 11:29:40;;;;;;;4.60;2.50;;;13.20;99.90;;;;;;5035899;28;20056;-60
2020/12/23 11:32:06;;;;;;;2.80;2.50;;;13.20;99.90;;;;;;5036059;28;20497;-59
2020/12/23 11:34:31;;;;;;;5.50;3.05;;;13.20;99.90;;;;;;5053965;28;20037;-62
2020/12/23 11:36:59;;;;;;;2.85;2.30;;;13.20;99.90;;;;;;5054541;28;20417;-60
2020/12/23 11:39:24;;;;;;;3.97;3.03;;;13.20;99.90;;;;;;5035827;28;20032;-62
2020/12/23 11:41:57;;;;;;;5.53;2.70;;;13.20;99.90;;;;;;5036514;28;20029;-60
2020/12/23 11:44:24;;;;;;;3.08;2.72;;;13.20;99.90;;;;;;5036703;28;20037;-72
2020/12/23 11:46:50;;;;;;;4.63;3.15;;;13.20;99.90;;;;;;5036939;28;20470;-59
2020/12/23 11:49:16;;;;;;;5.53;2.90;;;13.10;99.90;;;;;;5037052;28;20056;-58
2020/12/23 11:51:42;;;;;;;3.83;2.50;;;13.10;99.90;;;;;;5036249;28;20029;-60
2020/12/23 11:54:08;;;;;;;4.47;2.40;;;13.20;99.90;;;;;;5036791;28;20079;-60
2020/12/23 11:56:34;;;;;;;5.45;2.53;;;13.20;99.90;;;;;;5035540;28;20041;-59
2020/12/23 11:59:00;;;;;;;3.90;2.58;;;13.20;99.90;;;;;;5054273;28;20067;-62
2020/12/23 12:01:27;;;;;;;4.53;2.53;;;13.20;99.90;;;;;;5036195;28;20386;-59
2020/12/23 12:03:53;;;;;;;3.65;2.50;;;13.20;99.90;;;;;;5036352;28;20037;-61
2020/12/23 12:06:19;;;;;;;5.45;2.50;;;13.20;99.90;;;;;;5055086;28;20029;-62
2020/12/23 12:08:45;;;;;;;4.53;2.55;;;13.20;99.90;;;;;;5053079;28;20057;-60
2020/12/23 12:11:11;;;;;;;4.38;2.65;;;13.10;99.90;;;;;;5035616;28;20459;-60
2020/12/23 12:13:36;;;;;;;3.88;2.28;;;13.10;99.90;;;;;;5052786;28;20033;-59
2020/12/23 12:16:02;;;;;;;4.35;2.40;;;13.20;99.90;;;;;;5035385;28;20040;-59
2020/12/23 12:18:28;;;;;;;2.65;2.15;;;13.10;99.90;;;;;;5052411;28;20487;-60
2020/12/23 12:20:53;;;;;;;5.82;2.22;;;13.20;99.90;;;;;;5035294;28;20520;-60
2020/12/23 12:23:19;;;;;;;5.80;3.15;;;13.20;99.90;;;;;;5035126;28;20405;-60
2020/12/23 12:25:45;;;;;;;2.65;1.88;;;13.20;99.90;;;;;;5052720;28;20275;-60
2020/12/23 12:28:11;;;;;;;3.05;2.00;;;13.20;99.90;;;;;;5035027;28;20025;-66
2020/12/23 12:30:38;;;;;;;3.88;2.25;;;13.20;99.90;;;;;;5034567;28;20032;-60
2020/12/23 12:33:04;;;;;;;2.40;1.67;;;13.10;99.90;;;;;;5053533;28;20119;-59
2020/12/23 12:35:30;;;;;;;3.10;2.22;;;13.20;99.90;;;;;;5052982;28;20087;-60
2020/12/23 12:37:55;;;;;;;2.63;2.08;;;13.20;99.90;;;;;;5035282;28;20025;-59
2020/12/23 12:40:21;;;;;;;5.57;2.28;;;13.20;99.90;;;;;;5053185;28;20067;-59
2020/12/23 12:42:46;;;;;;;4.50;2.08;;;13.10;99.90;;;;;;5035410;28;20028;-59
2020/12/23 12:45:12;;;;;;;5.10;3.08;;;13.10;99.90;;;;;;5053632;28;20033;-60
2020/12/23 12:47:38;;;;;;;4.18;2.58;;;13.20;99.90;;;;;;5034895;28;20032;-59
2020/12/23 12:50:04;;;;;;;4.93;2.08;;;13.20;99.90;;;;;;5053341;28;20024;-60
2020/12/23 12:52:31;;;;;;;3.45;2.17;;;13.20;99.90;;;;;;5035009;28;20033;-62